Fayetteville Regional Grannis Field
KFAY : now visible

Airfield :











YOU CAN JOIN US ON...

 
LOGIN :

Register | Disclaimer

   EN    FR    IT 

 









Legend :    VFR   Marginal VFR   IFR   Intensive IFR   Very Intensive IFR
Visi :
Ceiling :
>= 8 km
>= 3000ft
5 to 8 km
1000 to 3000 ft
1500m to 5 km
500 to 1000 ft
800 to 1500m
200 to 500 ft
< 800m
< 200 ft
Symbols :   Thunderstorms  Fog  Heavy snow  Heavy precipitations  Wind > 20 kt






- Airport Elevation : 189 ft
- IATA code : FAY


KFAY - Fayetteville Regional Grannis Field

CURRENT METAR :
  • 081953Z 04006KT 10SM BKN055 OVC070 11/03 A3034 RMK AO2 SLP268 T01110028

EXPIRED METARs :
  • 081853Z 03005KT 10SM OVC060 11/02 A3035 RMK AO2 SLP272 T01110022
  • 081753Z 36007KT 10SM SCT032 BKN070 OVC080 11/02 A3037 RMK AO2 SLP279 T01060017 10111 21011 58029

TAF KFAY
Valid from the 08 at 19:00 until the 09 at 18:00 UTC


081906Z 0819/0918 03005KT P6SM FEW030 SCT060 BKN080
TEMPO 0819/0823 BKN028 OVC060
FM082300 04005KT 3SM -RA BR BKN015
FM090600 VRB03KT 3SM -RA OVC008
FM090900 VRB02KT 3SM -RA BR OVC003
FM091000 VRB02KT 1/2SM -DZ FG OVC002



MET'MAP, your aeronautical weather chart ! - Copyright ORBIFLY December 2007 - Disclaimer

ORBIFLY MET'MAP TEAM :

Programming & Development : Alexandra Zaïnal
Concept & original design : Baudouin d'Aumeries
Assistance for programming : Marc-Olivier Méhu
Technical & hardware support : Manuel Goepfert

Contact : metmap@orbifly.com




SOURCES & CREDITS :

   NOAA       Earth
Advisory